createdAt,value
2018-02-09T00:02:04.412Z,38.90
2018-02-09T00:04:33.413Z,40.70
2018-02-09T00:07:01.972Z,41.57
2018-02-09T00:09:30.528Z,42.10
2018-02-09T00:11:59.995Z,45.63
2018-02-09T00:14:29.325Z,45.83
2018-02-09T00:16:58.683Z,43.37
2018-02-09T00:19:27.300Z,41.90
2018-02-09T00:21:55.867Z,42.77
2018-02-09T00:24:24.492Z,45.17
2018-02-09T00:26:53.848Z,44.90
2018-02-09T00:29:22.404Z,49.73
2018-02-09T00:31:50.959Z,44.13
2018-02-09T00:34:19.568Z,41.17
2018-02-09T00:36:48.128Z,44.90
2018-02-09T00:39:16.676Z,40.20
2018-02-09T00:41:45.267Z,37.53
2018-02-09T00:44:14.592Z,37.10
2018-02-09T00:46:43.145Z,38.63
2018-02-09T00:49:11.743Z,35.60
2018-02-09T00:51:41.396Z,33.50
2018-02-09T00:54:09.948Z,31.80
2018-02-09T00:56:38.545Z,29.90
2018-02-09T00:59:07.095Z,27.43
2018-02-09T01:01:36.415Z,25.17
2018-02-09T01:04:05.876Z,23.40
2018-02-09T01:06:34.411Z,23.53
2018-02-09T01:09:02.963Z,20.83
2018-02-09T01:11:32.492Z,20.50
2018-02-09T01:14:01.040Z,19.47
2018-02-09T01:16:29.612Z,18.83
2018-02-09T01:18:58.596Z,18.43
2018-02-09T01:21:27.147Z,19.37
2018-02-09T01:23:55.699Z,19.57
2018-02-09T01:26:25.162Z,22.23
2018-02-09T01:28:53.719Z,21.73
2018-02-09T01:31:22.267Z,26.23
2018-02-09T01:33:51.752Z,24.30
2018-02-09T01:36:20.322Z,24.07
2018-02-09T01:38:48.877Z,24.93
2018-02-09T01:41:17.593Z,25.17
2018-02-09T01:43:46.144Z,23.33
2018-02-09T01:46:14.713Z,22.40
2018-02-09T01:48:43.325Z,22.10
2018-02-09T01:51:11.876Z,22.27
2018-02-09T01:53:40.423Z,18.33
2018-02-09T01:56:09.112Z,18.87
2018-02-09T01:58:37.672Z,18.33
2018-02-09T02:01:06.224Z,15.40
2018-02-09T02:03:35.048Z,15.73
2018-02-09T02:06:03.628Z,18.00
2018-02-09T02:08:32.184Z,19.17
2018-02-09T02:11:00.803Z,18.47
2018-02-09T02:13:30.119Z,13.77
2018-02-09T02:15:58.686Z,13.93
2018-02-09T02:18:27.284Z,21.77
2018-02-09T02:20:55.841Z,22.00
2018-02-09T02:23:24.392Z,20.20
2018-02-09T02:25:53.216Z,16.97
2018-02-09T02:28:21.766Z,15.03
2018-02-09T02:30:50.313Z,15.27
2018-02-09T02:33:19.276Z,15.60
2018-02-09T02:35:47.827Z,16.37
2018-02-09T02:38:16.372Z,15.03
2018-02-09T02:40:45.080Z,12.87
2018-02-09T02:43:14.400Z,10.70
2018-02-09T02:45:42.961Z,11.43
2018-02-09T02:48:11.798Z,12.67
2018-02-09T02:50:40.355Z,11.03
2018-02-09T02:53:08.904Z,15.43
2018-02-09T02:55:38.288Z,13.77
2018-02-09T02:58:06.841Z,13.17
2018-02-09T03:00:35.384Z,21.30
2018-02-09T03:03:04.096Z,25.50
2018-02-09T03:05:32.643Z,32.47
2018-02-09T03:08:01.956Z,16.37
2018-02-09T03:10:30.716Z,22.60
2018-02-09T03:12:59.297Z,21.53
2018-02-09T03:15:27.841Z,16.53
2018-02-09T03:17:56.657Z,15.03
2018-02-09T03:20:25.208Z,14.13
2018-02-09T03:22:53.767Z,14.00
2018-02-09T03:25:22.648Z,15.27
2018-02-09T03:27:51.959Z,16.07
2018-02-09T03:30:20.517Z,15.63
2018-02-09T03:32:50.940Z,19.03
2018-02-09T03:35:19.491Z,16.53
2018-02-09T03:37:48.099Z,16.03
2018-02-09T03:40:17.071Z,15.43
2018-02-09T03:42:45.615Z,19.30
2018-02-09T03:45:14.160Z,17.30
2018-02-09T03:47:42.880Z,17.87
2018-02-09T03:50:11.441Z,19.27
2018-02-09T03:52:40.765Z,17.23
2018-02-09T03:55:09.456Z,22.07
2018-02-09T03:57:38.004Z,16.10
2018-02-09T04:00:06.556Z,14.13
2018-02-09T04:02:35.244Z,13.90
2018-02-09T04:05:03.878Z,12.97
2018-02-09T04:07:33.213Z,12.47
2018-02-09T04:10:01.809Z,12.53
2018-02-09T04:12:31.120Z,23.57
2018-02-09T04:14:59.671Z,24.93
2018-02-09T04:17:28.362Z,21.17
2018-02-09T04:19:56.916Z,18.03
2018-02-09T04:22:26.220Z,12.20
2018-02-09T04:24:54.922Z,10.43
2018-02-09T04:27:23.470Z,9.83
2018-02-09T04:29:52.797Z,8.47
2018-02-09T04:32:21.611Z,8.30
2018-02-09T04:34:50.160Z,7.63
2018-02-09T04:37:19.463Z,8.47
2018-02-09T04:39:48.206Z,9.00
2018-02-09T04:42:16.765Z,9.97
2018-02-09T04:44:45.311Z,13.70
2018-02-09T04:47:14.764Z,11.30
2018-02-09T04:49:43.321Z,10.23
2018-02-09T04:52:11.881Z,10.63
2018-02-09T04:54:41.339Z,12.30
2018-02-09T04:57:09.899Z,11.10
2018-02-09T04:59:38.493Z,11.40
2018-02-09T05:02:07.084Z,11.20
2018-02-09T05:04:35.622Z,11.20
2018-02-09T05:07:04.940Z,11.20
2018-02-09T05:09:33.547Z,12.60
2018-02-09T05:12:02.093Z,12.73
2018-02-09T05:14:30.636Z,11.87
2018-02-09T05:16:59.706Z,12.97
2018-02-09T05:19:28.585Z,13.97
2018-02-09T05:21:57.140Z,13.07
2018-02-09T05:24:25.740Z,16.77
2018-02-09T05:26:54.297Z,17.67
2018-02-09T05:29:22.868Z,20.33
2018-02-09T05:31:52.231Z,18.87
2018-02-09T05:34:21.575Z,20.40
2018-02-09T05:36:50.128Z,16.13
2018-02-09T05:39:18.964Z,12.23
2018-02-09T05:41:47.542Z,13.57
2018-02-09T05:44:16.115Z,14.93
2018-02-09T05:46:44.906Z,12.40
2018-02-09T05:49:13.452Z,13.90
2018-02-09T05:51:41.996Z,16.47
2018-02-09T05:54:10.695Z,20.93
2018-02-09T05:56:40.019Z,27.23
2018-02-09T05:59:08.845Z,35.60
2018-02-09T06:01:38.223Z,28.97
2018-02-09T06:04:06.773Z,24.23
2018-02-09T06:06:36.992Z,24.20
2018-02-09T06:09:05.644Z,24.87
2018-02-09T06:11:34.196Z,24.93
2018-02-09T06:14:02.744Z,17.10
2018-02-09T06:16:31.440Z,29.57
2018-02-09T06:19:00.752Z,28.17
2018-02-09T06:21:30.069Z,19.70
2018-02-09T06:23:58.956Z,19.60
2018-02-09T06:26:27.511Z,19.70
2018-02-09T06:28:56.835Z,18.70
2018-02-09T06:31:25.439Z,18.63
2018-02-09T06:33:53.999Z,16.63
2018-02-09T06:36:22.579Z,12.37
2018-02-09T06:38:51.411Z,23.30
2018-02-09T06:41:20.731Z,14.63
2018-02-09T06:43:49.289Z,27.87
2018-02-09T06:46:17.889Z,16.43
2018-02-09T06:48:46.457Z,8.70
2018-02-09T06:51:15.045Z,11.97
2018-02-09T06:53:43.640Z,27.73
2018-02-09T06:56:12.201Z,25.20
2018-02-09T06:58:40.756Z,14.87
2018-02-09T07:01:09.457Z,13.93
2018-02-09T07:03:38.057Z,11.00
2018-02-09T07:06:06.604Z,10.30
2018-02-09T07:08:35.295Z,10.40
2018-02-09T07:11:03.849Z,11.80
2018-02-09T07:13:33.173Z,10.77
2018-02-09T07:16:02.005Z,10.17
2018-02-09T07:18:30.553Z,12.13
2018-02-09T07:20:59.097Z,19.03
2018-02-09T07:23:27.704Z,22.23
2018-02-09T07:25:57.019Z,21.73
2018-02-09T07:28:26.359Z,27.50
2018-02-09T07:30:55.720Z,20.63
2018-02-09T07:33:24.268Z,22.60
2018-02-09T07:35:53.481Z,18.83
2018-02-09T07:38:22.944Z,11.50
2018-02-09T07:40:52.265Z,11.53
2018-02-09T07:43:20.828Z,11.67
2018-02-09T07:45:49.436Z,11.13
2018-02-09T07:48:18.004Z,11.60
2018-02-09T07:50:46.576Z,12.07
2018-02-09T07:53:15.327Z,8.23
2018-02-09T07:55:43.872Z,8.47
2018-02-09T07:58:12.432Z,7.27
2018-02-09T08:00:41.037Z,7.80
2018-02-09T08:03:11.124Z,7.30
2018-02-09T08:05:39.681Z,6.70
2018-02-09T08:08:08.393Z,7.47
2018-02-09T08:10:36.956Z,8.07
2018-02-09T08:13:05.520Z,6.90
2018-02-09T08:15:35.071Z,6.23
2018-02-09T08:18:03.624Z,5.27
2018-02-09T08:20:32.185Z,6.97
2018-02-09T08:23:01.657Z,6.83
2018-02-09T08:25:30.226Z,6.80
2018-02-09T08:27:58.861Z,6.93
2018-02-09T08:30:28.416Z,6.70
2018-02-09T08:32:56.968Z,6.60
2018-02-09T08:35:25.536Z,10.93
2018-02-09T08:37:55.759Z,11.80
2018-02-09T08:40:24.320Z,7.43
2018-02-09T08:42:54.385Z,6.43
2018-02-09T08:45:23.156Z,6.37
2018-02-09T08:47:51.709Z,5.57
2018-02-09T08:50:20.302Z,5.90
2018-02-09T08:52:49.668Z,6.07
2018-02-09T08:55:18.229Z,6.73
2018-02-09T08:57:46.790Z,6.23
2018-02-09T09:00:15.821Z,5.40
2018-02-09T09:02:44.372Z,5.87
2018-02-09T09:05:12.930Z,5.30
2018-02-09T09:07:42.597Z,4.97
2018-02-09T09:10:11.185Z,6.17
2018-02-09T09:12:39.732Z,5.33
2018-02-09T09:15:08.341Z,4.90
2018-02-09T09:17:36.892Z,4.87
2018-02-09T09:20:05.479Z,3.73
2018-02-09T09:22:34.244Z,5.23
2018-02-09T09:25:03.580Z,4.17
2018-02-09T09:27:32.136Z,3.43
2018-02-09T09:30:00.968Z,2.97
2018-02-09T09:32:29.516Z,3.80
2018-02-09T09:34:58.064Z,3.80
2018-02-09T09:37:26.928Z,3.67
2018-02-09T09:39:55.476Z,3.80
2018-02-09T09:42:24.039Z,3.20
2018-02-09T09:44:53.796Z,3.83
2018-02-09T09:47:22.344Z,2.30
2018-02-09T09:49:51.709Z,2.40
2018-02-09T09:52:20.315Z,2.60
2018-02-09T09:54:49.627Z,2.90
2018-02-09T09:57:18.939Z,3.03
2018-02-09T09:59:47.550Z,2.43
2018-02-09T10:02:33.900Z,2.77
2018-02-09T10:05:03.460Z,2.67
2018-02-09T10:07:32.019Z,2.70
2018-02-09T10:10:00.572Z,2.60
2018-02-09T10:12:29.940Z,2.63
2018-02-09T10:14:58.501Z,2.93
2018-02-09T10:17:27.053Z,2.93
2018-02-09T10:19:55.806Z,3.00
2018-02-09T10:22:24.372Z,3.27
2018-02-09T10:24:52.933Z,2.60
2018-02-09T10:27:21.734Z,2.93
2018-02-09T10:29:50.282Z,2.53
2018-02-09T10:32:19.597Z,2.83
2018-02-09T10:34:48.369Z,3.20
2018-02-09T10:37:16.920Z,3.17
2018-02-09T10:39:45.480Z,3.57
2018-02-09T10:42:14.096Z,2.57
2018-02-09T10:44:43.424Z,2.80
2018-02-09T10:47:11.981Z,2.20
2018-02-09T10:49:41.358Z,2.40
2018-02-09T10:52:09.909Z,2.50
2018-02-09T10:54:38.464Z,2.73
2018-02-09T10:57:07.827Z,2.80
2018-02-09T10:59:36.396Z,3.10
2018-02-09T11:02:04.981Z,2.60
2018-02-09T11:04:33.575Z,2.67
2018-02-09T11:07:02.120Z,2.70
2018-02-09T11:09:31.564Z,2.50
2018-02-09T11:12:13.834Z,2.50
2018-02-09T11:14:43.287Z,2.60
2018-02-09T11:17:13.019Z,2.93
2018-02-09T11:19:42.487Z,2.30
2018-02-09T11:22:11.061Z,2.60
2018-02-09T11:24:39.620Z,2.77
2018-02-09T11:27:08.237Z,4.20
2018-02-09T11:29:36.792Z,3.63
2018-02-09T11:32:05.346Z,2.90
2018-02-09T11:34:33.980Z,2.27
2018-02-09T11:37:02.533Z,2.80
2018-02-09T11:39:31.160Z,3.03
2018-02-09T11:42:00.037Z,2.97
2018-02-09T11:44:29.526Z,3.10
2018-02-09T11:46:58.082Z,3.50
2018-02-09T11:49:26.977Z,3.57
2018-02-09T11:51:55.557Z,3.23
2018-02-09T11:54:24.107Z,2.43
2018-02-09T11:56:53.569Z,2.83
2018-02-09T11:59:22.124Z,2.33
2018-02-09T12:01:50.752Z,2.80
2018-02-09T12:04:19.369Z,4.00
2018-02-09T12:06:48.724Z,4.10
2018-02-09T12:09:17.270Z,2.90
2018-02-09T12:11:46.002Z,3.80
2018-02-09T12:14:14.585Z,10.23
2018-02-09T12:16:43.164Z,4.30
2018-02-09T12:19:11.960Z,3.03
2018-02-09T12:21:40.544Z,2.50
2018-02-09T12:24:09.107Z,2.97
2018-02-09T12:26:37.709Z,2.80
2018-02-09T12:29:06.265Z,3.23
2018-02-09T12:31:34.829Z,2.10
2018-02-09T12:34:03.868Z,3.07
2018-02-09T12:36:32.428Z,3.20
2018-02-09T12:39:00.996Z,1.80
2018-02-09T12:41:29.765Z,2.40
2018-02-09T12:43:59.078Z,1.43
2018-02-09T12:46:27.650Z,2.20
2018-02-09T12:48:58.129Z,1.73
2018-02-09T12:51:26.711Z,2.10
2018-02-09T12:53:56.041Z,2.07
2018-02-09T12:56:24.665Z,2.43
2018-02-09T12:58:53.241Z,3.13
2018-02-09T13:01:22.556Z,2.60
2018-02-09T13:03:51.479Z,2.10
2018-02-09T13:06:20.060Z,2.23
2018-02-09T13:08:48.615Z,3.13
2018-02-09T13:11:17.529Z,2.57
2018-02-09T13:13:46.165Z,1.83
2018-02-09T13:16:14.720Z,2.93
2018-02-09T13:18:50.855Z,2.90
2018-02-09T13:21:19.424Z,1.90
2018-02-09T13:24:06.204Z,2.37
2018-02-09T13:26:35.515Z,2.60
2018-02-09T13:29:04.100Z,2.50
2018-02-09T13:31:33.175Z,3.90
2018-02-09T13:34:02.575Z,3.90
2018-02-09T13:39:42.637Z,4.27
2018-02-09T13:42:12.260Z,4.67
2018-02-09T13:44:41.577Z,6.60
2018-02-09T13:47:10.130Z,6.33
2018-02-09T13:49:38.841Z,7.00
2018-02-09T13:52:08.156Z,6.23
2018-02-09T13:54:36.719Z,5.77
2018-02-09T13:57:05.465Z,7.73
2018-02-09T13:59:34.015Z,3.43
2018-02-09T14:02:02.573Z,4.83
2018-02-09T14:04:31.216Z,5.20
2018-02-09T14:06:59.804Z,3.83
2018-02-09T14:09:28.412Z,5.57
2018-02-09T14:11:58.180Z,5.43
2018-02-09T14:14:26.767Z,4.80
2018-02-09T14:16:55.344Z,5.27
2018-02-09T14:19:24.320Z,6.70
2018-02-09T14:21:54.590Z,4.20
2018-02-09T14:24:23.147Z,3.70
2018-02-09T14:26:52.072Z,4.00
2018-02-09T14:29:20.634Z,4.30
2018-02-09T14:31:49.210Z,6.27
2018-02-09T14:34:17.819Z,5.80
2018-02-09T14:36:46.385Z,3.87
2018-02-09T14:39:15.717Z,4.43
2018-02-09T14:41:44.321Z,5.20
2018-02-09T14:44:13.653Z,4.83
2018-02-09T14:46:42.208Z,3.80
2018-02-09T14:49:11.594Z,3.93
2018-02-09T14:51:40.165Z,4.53
2018-02-09T14:54:08.733Z,4.40
2018-02-09T14:56:37.535Z,5.87
2018-02-09T14:59:06.925Z,4.90
2018-02-09T15:01:35.485Z,5.77
2018-02-09T15:04:04.099Z,7.97
2018-02-09T15:06:33.425Z,7.30
2018-02-09T15:09:01.995Z,5.60
2018-02-09T15:11:31.569Z,6.23
2018-02-09T15:14:00.154Z,4.80
2018-02-09T15:16:28.731Z,5.17
2018-02-09T15:18:57.434Z,4.50
2018-02-09T15:21:26.048Z,5.67
2018-02-09T15:23:54.608Z,6.93
2018-02-09T15:26:23.265Z,7.60
2018-02-09T15:28:51.908Z,13.23
2018-02-09T15:31:20.476Z,12.70
2018-02-09T15:33:49.204Z,11.00
2018-02-09T15:36:17.780Z,10.03
2018-02-09T15:38:46.364Z,9.70
2018-02-09T15:41:15.245Z,13.40
2018-02-09T15:43:43.809Z,16.33
2018-02-09T15:46:12.370Z,18.50
2018-02-09T15:48:41.204Z,22.97
2018-02-09T15:51:09.833Z,28.17
2018-02-09T15:53:39.296Z,25.33
2018-02-09T15:56:08.901Z,23.20
2018-02-09T15:58:37.532Z,23.10
2018-02-09T16:01:06.098Z,23.33
2018-02-09T16:03:34.822Z,27.20
2018-02-09T16:06:03.435Z,31.83
2018-02-09T16:08:32.776Z,30.43
2018-02-09T16:11:01.552Z,32.53
2018-02-09T16:13:30.109Z,33.93
2018-02-09T16:15:59.445Z,32.07
2018-02-09T16:18:28.272Z,41.73
2018-02-09T16:20:57.647Z,36.70
2018-02-09T16:23:26.200Z,40.67
2018-02-09T16:25:55.677Z,47.70
2018-02-09T16:28:24.250Z,55.60
2018-02-09T16:30:52.858Z,39.77
2018-02-09T16:33:22.237Z,42.50
2018-02-09T16:35:50.814Z,60.97
2018-02-09T16:38:19.393Z,87.70
2018-02-09T16:40:48.004Z,84.87
2018-02-09T16:43:17.341Z,82.23
2018-02-09T16:45:45.925Z,51.70
2018-02-09T16:48:14.702Z,55.13
2018-02-09T16:50:43.297Z,88.00
2018-02-09T16:53:11.885Z,75.90
2018-02-09T16:55:41.397Z,74.83
2018-02-09T16:58:09.961Z,61.73
2018-02-09T17:00:38.543Z,70.10
2018-02-09T17:03:07.270Z,80.93
2018-02-09T17:05:35.849Z,71.20
2018-02-09T17:08:04.426Z,60.93
2018-02-09T17:10:33.249Z,53.10
2018-02-09T17:13:02.608Z,59.63
2018-02-09T17:15:31.185Z,73.37
2018-02-09T17:17:59.817Z,68.80
2018-02-09T17:20:28.389Z,67.73
2018-02-09T17:22:56.964Z,64.30
2018-02-09T17:25:25.592Z,45.77
2018-02-09T17:27:54.156Z,42.20
2018-02-09T17:30:22.736Z,184.13
2018-02-09T17:32:51.868Z,161.10
2018-02-09T17:35:20.433Z,100.87
2018-02-09T17:37:49.760Z,86.27
2018-02-09T17:40:18.386Z,106.23
2018-02-09T17:42:47.716Z,112.33
2018-02-09T17:45:17.061Z,93.13
2018-02-09T17:47:45.787Z,90.47
2018-02-09T17:50:14.358Z,63.30
2018-02-09T17:52:42.933Z,51.73
2018-02-09T17:55:11.557Z,63.80
2018-02-09T17:57:40.913Z,54.13
2018-02-09T18:00:09.476Z,81.27
2018-02-09T18:02:38.090Z,58.30
2018-02-09T18:05:06.690Z,78.10
2018-02-09T18:07:35.270Z,96.77
2018-02-09T18:10:03.949Z,58.93
2018-02-09T18:12:32.525Z,42.53
2018-02-09T18:15:01.080Z,37.73
2018-02-09T18:17:31.449Z,47.03
2018-02-09T18:20:00.837Z,59.17
2018-02-09T18:22:29.410Z,36.07
2018-02-09T18:24:58.124Z,43.50
2018-02-09T18:27:26.699Z,34.10
2018-02-09T18:29:55.961Z,36.87
2018-02-09T18:32:25.258Z,41.80
2018-02-09T18:34:53.816Z,37.30
2018-02-09T18:37:23.897Z,41.47
2018-02-09T18:39:54.600Z,48.63
2018-02-09T18:42:23.207Z,40.97
2018-02-09T18:44:51.768Z,38.70
2018-02-09T18:47:20.386Z,38.23
2018-02-09T18:49:48.961Z,27.33
2018-02-09T18:52:17.536Z,23.57
2018-02-09T18:54:46.156Z,23.73
2018-02-09T18:57:15.493Z,28.70
2018-02-09T18:59:44.100Z,32.70
2018-02-09T19:02:12.709Z,32.77
2018-02-09T19:04:41.281Z,31.57
2018-02-09T19:07:10.518Z,28.20
2018-02-09T19:09:39.954Z,26.43
2018-02-09T19:12:08.518Z,31.60
2018-02-09T19:14:37.077Z,40.67
2018-02-09T19:17:08.495Z,29.60
2018-02-09T19:19:37.054Z,24.90
2018-02-09T19:22:05.612Z,25.50
2018-02-09T19:24:34.318Z,25.63
2018-02-09T19:27:02.897Z,24.70
2018-02-09T19:29:31.470Z,23.90
2018-02-09T19:32:01.119Z,24.23
2018-02-09T19:34:31.276Z,27.10
2018-02-09T19:36:59.840Z,28.00
2018-02-09T19:39:28.605Z,24.53
2018-02-09T19:41:57.229Z,23.20
2018-02-09T19:44:26.565Z,28.63
2018-02-09T19:46:55.187Z,25.77
2018-02-09T19:49:23.820Z,24.30
2018-02-09T19:51:52.396Z,22.87
2018-02-09T19:54:21.836Z,20.23
2018-02-09T19:56:50.419Z,22.23
2018-02-09T19:59:18.984Z,22.27
2018-02-09T20:01:47.709Z,21.73
2018-02-09T20:04:16.689Z,22.73
2018-02-09T20:06:46.207Z,19.93
2018-02-09T20:09:15.771Z,22.47
2018-02-09T20:11:44.351Z,18.90
2018-02-09T20:14:12.920Z,19.13
2018-02-09T20:16:42.430Z,20.47
2018-02-09T20:19:11.019Z,22.67
2018-02-09T20:21:39.602Z,23.70
2018-02-09T20:24:08.377Z,24.80
2018-02-09T20:26:37.709Z,32.50
2018-02-09T20:29:06.273Z,51.43
2018-02-09T20:31:35.748Z,47.10
2018-02-09T20:34:04.308Z,39.87
2018-02-09T20:36:32.897Z,41.72
2018-02-09T20:39:01.541Z,32.25
2018-02-09T20:41:30.898Z,39.92
2018-02-09T20:43:59.465Z,36.27
2018-02-09T20:46:28.868Z,50.78
2018-02-09T20:48:57.533Z,38.28
2018-02-09T20:51:26.097Z,28.67
2018-02-09T20:53:55.631Z,38.42
2018-02-09T20:56:24.216Z,29.87
2018-02-09T20:58:52.813Z,26.65
2018-02-09T21:01:21.603Z,25.53
2018-02-09T21:03:50.167Z,22.63
2018-02-09T21:06:18.730Z,26.17
2018-02-09T21:08:47.336Z,27.73
2018-02-09T21:11:15.898Z,29.57
2018-02-09T21:13:44.450Z,31.20
2018-02-09T21:16:14.118Z,29.80
2018-02-09T21:18:42.676Z,30.33
2018-02-09T21:21:11.232Z,27.20
2018-02-09T21:23:40.592Z,29.57
2018-02-09T21:26:09.911Z,30.23
2018-02-09T21:28:39.233Z,29.93
2018-02-09T21:31:08.712Z,29.07
2018-02-09T21:33:37.278Z,31.43
2018-02-09T21:36:06.587Z,39.87
2018-02-09T21:38:35.309Z,28.40
2018-02-09T21:41:03.865Z,26.43
2018-02-09T21:43:33.205Z,30.77
2018-02-09T21:46:01.813Z,33.43
2018-02-09T21:48:30.394Z,36.17
2018-02-09T21:50:59.031Z,41.50
2018-02-09T21:53:28.809Z,52.37
2018-02-09T21:55:57.371Z,76.17
2018-02-09T21:58:25.920Z,55.70
2018-02-09T22:00:55.436Z,56.13
2018-02-09T22:03:23.992Z,48.97
2018-02-09T22:05:52.566Z,50.80
2018-02-09T22:08:22.173Z,54.03
2018-02-09T22:10:50.758Z,55.47
2018-02-09T22:13:19.333Z,52.57
2018-02-09T22:15:48.208Z,105.77
2018-02-09T22:18:16.844Z,51.23
2018-02-09T22:20:45.421Z,50.07
2018-02-09T22:23:15.191Z,47.97
2018-02-09T22:25:43.753Z,44.10
2018-02-09T22:28:12.320Z,43.27
2018-02-09T22:30:40.972Z,44.70
2018-02-09T22:33:10.305Z,42.37
2018-02-09T22:35:38.863Z,44.50
2018-02-09T22:38:08.425Z,46.63
2018-02-09T22:40:36.978Z,36.00
2018-02-09T22:43:05.532Z,35.10
2018-02-09T22:45:34.934Z,34.90
2018-02-09T22:48:04.286Z,36.60
2018-02-09T22:50:32.843Z,37.97
2018-02-09T22:53:01.545Z,35.10
2018-02-09T22:55:30.108Z,45.33
2018-02-09T22:57:58.700Z,30.87
2018-02-09T23:00:27.626Z,29.27
2018-02-09T23:02:56.964Z,49.10
2018-02-09T23:05:25.531Z,55.90
2018-02-09T23:07:54.360Z,51.57
2018-02-09T23:10:22.924Z,23.17
2018-02-09T23:12:51.482Z,19.03
2018-02-09T23:15:20.308Z,14.70
2018-02-09T23:17:48.869Z,14.10
2018-02-09T23:20:17.436Z,11.97
2018-02-09T23:22:46.991Z,11.83
2018-02-09T23:25:15.586Z,10.47
2018-02-09T23:27:44.157Z,13.83
2018-02-09T23:30:19.913Z,11.40
2018-02-09T23:32:48.513Z,10.93
2018-02-09T23:35:17.084Z,9.77
2018-02-09T23:37:45.866Z,9.33
2018-02-09T23:40:14.424Z,10.60
2018-02-09T23:42:42.980Z,11.67
2018-02-09T23:45:12.353Z,11.57
2018-02-09T23:47:40.906Z,12.93
2018-02-09T23:50:10.225Z,13.13
2018-02-09T23:52:38.973Z,19.60
2018-02-09T23:55:07.528Z,20.60
2018-02-09T23:57:36.848Z,21.17
